sensor_id;sensor_type;location;lat;lon;timestamp;temperature;humidity
70154;DHT22;57519;51.494;-2.626;2023-04-09T00:01:32;8.44;77.12
70154;DHT22;57519;51.494;-2.626;2023-04-09T00:03:57;8.39;77.70
70154;DHT22;57519;51.494;-2.626;2023-04-09T00:06:23;8.32;77.48
70154;DHT22;57519;51.494;-2.626;2023-04-09T00:08:49;8.36;77.21
70154;DHT22;57519;51.494;-2.626;2023-04-09T00:11:15;8.36;77.17
70154;DHT22;57519;51.494;-2.626;2023-04-09T00:13:41;8.25;77.58
70154;DHT22;57519;51.494;-2.626;2023-04-09T00:16:07;8.28;77.58
70154;DHT22;57519;51.494;-2.626;2023-04-09T00:18:32;8.19;77.83
70154;DHT22;57519;51.494;-2.626;2023-04-09T00:20:58;8.17;77.87
70154;DHT22;57519;51.494;-2.626;2023-04-09T00:23:25;8.10;78.05
70154;DHT22;57519;51.494;-2.626;2023-04-09T00:25:50;8.06;78.07
70154;DHT22;57519;51.494;-2.626;2023-04-09T00:28:16;8.01;78.23
70154;DHT22;57519;51.494;-2.626;2023-04-09T00:30:41;8.02;78.22
70154;DHT22;57519;51.494;-2.626;2023-04-09T00:33:07;7.99;78.29
70154;DHT22;57519;51.494;-2.626;2023-04-09T00:35:32;7.94;78.41
70154;DHT22;57519;51.494;-2.626;2023-04-09T00:38:00;7.96;78.28
70154;DHT22;57519;51.494;-2.626;2023-04-09T00:40:26;7.94;78.29
70154;DHT22;57519;51.494;-2.626;2023-04-09T00:42:51;7.86;78.63
70154;DHT22;57519;51.494;-2.626;2023-04-09T00:45:17;7.82;78.66
70154;DHT22;57519;51.494;-2.626;2023-04-09T00:47:42;7.73;78.97
70154;DHT22;57519;51.494;-2.626;2023-04-09T00:50:10;7.65;79.25
70154;DHT22;57519;51.494;-2.626;2023-04-09T00:52:37;7.63;79.47
70154;DHT22;57519;51.494;-2.626;2023-04-09T00:55:04;7.64;79.47
70154;DHT22;57519;51.494;-2.626;2023-04-09T00:57:30;7.64;79.53
70154;DHT22;57519;51.494;-2.626;2023-04-09T00:59:56;7.68;79.33
70154;DHT22;57519;51.494;-2.626;2023-04-09T01:02:22;7.64;79.38
70154;DHT22;57519;51.494;-2.626;2023-04-09T01:04:50;7.60;79.69
70154;DHT22;57519;51.494;-2.626;2023-04-09T01:09:53;7.57;79.73
70154;DHT22;57519;51.494;-2.626;2023-04-09T01:15:10;7.50;80.08
70154;DHT22;57519;51.494;-2.626;2023-04-09T01:17:49;7.44;80.35
70154;DHT22;57519;51.494;-2.626;2023-04-09T01:23:18;7.44;80.67
70154;DHT22;57519;51.494;-2.626;2023-04-09T01:28:44;7.46;80.92
70154;DHT22;57519;51.494;-2.626;2023-04-09T01:31:13;7.40;81.02
70154;DHT22;57519;51.494;-2.626;2023-04-09T01:33:51;7.37;81.17
70154;DHT22;57519;51.494;-2.626;2023-04-09T01:36:23;7.38;81.17
70154;DHT22;57519;51.494;-2.626;2023-04-09T01:39:02;7.40;81.35
70154;DHT22;57519;51.494;-2.626;2023-04-09T01:41:31;7.40;81.13
70154;DHT22;57519;51.494;-2.626;2023-04-09T01:43:59;7.34;81.42
70154;DHT22;57519;51.494;-2.626;2023-04-09T01:46:26;7.33;81.55
70154;DHT22;57519;51.494;-2.626;2023-04-09T01:48:54;7.31;81.78
70154;DHT22;57519;51.494;-2.626;2023-04-09T01:51:20;7.28;81.93
70154;DHT22;57519;51.494;-2.626;2023-04-09T01:53:48;7.23;82.20
70154;DHT22;57519;51.494;-2.626;2023-04-09T01:56:14;7.20;82.38
70154;DHT22;57519;51.494;-2.626;2023-04-09T01:58:39;7.15;82.56
70154;DHT22;57519;51.494;-2.626;2023-04-09T02:01:11;7.16;82.64
70154;DHT22;57519;51.494;-2.626;2023-04-09T02:03:45;7.12;82.86
70154;DHT22;57519;51.494;-2.626;2023-04-09T02:06:18;7.10;82.96
70154;DHT22;57519;51.494;-2.626;2023-04-09T02:08:54;7.13;82.91
70154;DHT22;57519;51.494;-2.626;2023-04-09T02:11:24;7.10;83.06
70154;DHT22;57519;51.494;-2.626;2023-04-09T02:13:53;7.12;83.02
70154;DHT22;57519;51.494;-2.626;2023-04-09T02:16:24;7.12;83.09
70154;DHT22;57519;51.494;-2.626;2023-04-09T02:19:06;7.00;83.32
70154;DHT22;57519;51.494;-2.626;2023-04-09T02:21:37;7.03;83.45
70154;DHT22;57519;51.494;-2.626;2023-04-09T02:24:02;6.99;83.49
70154;DHT22;57519;51.494;-2.626;2023-04-09T02:26:28;7.00;83.64
70154;DHT22;57519;51.494;-2.626;2023-04-09T02:28:56;6.98;83.72
70154;DHT22;57519;51.494;-2.626;2023-04-09T02:31:21;6.95;83.82
70154;DHT22;57519;51.494;-2.626;2023-04-09T02:33:50;6.84;83.96
70154;DHT22;57519;51.494;-2.626;2023-04-09T02:36:18;6.84;84.15
70154;DHT22;57519;51.494;-2.626;2023-04-09T02:38:45;6.79;84.30
70154;DHT22;57519;51.494;-2.626;2023-04-09T02:41:11;6.72;84.55
70154;DHT22;57519;51.494;-2.626;2023-04-09T02:43:39;6.69;84.86
70154;DHT22;57519;51.494;-2.626;2023-04-09T02:46:06;6.68;84.79
70154;DHT22;57519;51.494;-2.626;2023-04-09T02:48:31;6.67;84.73
70154;DHT22;57519;51.494;-2.626;2023-04-09T02:50:57;6.63;84.99
70154;DHT22;57519;51.494;-2.626;2023-04-09T02:53:23;6.69;84.73
70154;DHT22;57519;51.494;-2.626;2023-04-09T02:55:48;6.71;84.75
70154;DHT22;57519;51.494;-2.626;2023-04-09T02:58:14;6.72;84.58
70154;DHT22;57519;51.494;-2.626;2023-04-09T03:00:40;6.77;84.47
70154;DHT22;57519;51.494;-2.626;2023-04-09T03:03:06;6.79;84.36
70154;DHT22;57519;51.494;-2.626;2023-04-09T03:05:31;6.84;84.07
70154;DHT22;57519;51.494;-2.626;2023-04-09T03:07:57;6.81;84.16
70154;DHT22;57519;51.494;-2.626;2023-04-09T03:10:22;6.74;84.37
70154;DHT22;57519;51.494;-2.626;2023-04-09T03:12:47;6.61;84.60
70154;DHT22;57519;51.494;-2.626;2023-04-09T03:15:13;6.65;84.64
70154;DHT22;57519;51.494;-2.626;2023-04-09T03:17:38;6.57;84.93
70154;DHT22;57519;51.494;-2.626;2023-04-09T03:20:07;6.57;85.14
70154;DHT22;57519;51.494;-2.626;2023-04-09T03:22:36;6.54;85.22
70154;DHT22;57519;51.494;-2.626;2023-04-09T03:25:02;6.63;84.98
70154;DHT22;57519;51.494;-2.626;2023-04-09T03:27:30;6.63;84.87
70154;DHT22;57519;51.494;-2.626;2023-04-09T03:29:56;6.65;84.98
70154;DHT22;57519;51.494;-2.626;2023-04-09T03:32:21;6.65;84.88
70154;DHT22;57519;51.494;-2.626;2023-04-09T03:34:47;6.60;85.04
70154;DHT22;57519;51.494;-2.626;2023-04-09T03:37:20;6.58;85.10
70154;DHT22;57519;51.494;-2.626;2023-04-09T03:39:46;6.60;85.08
70154;DHT22;57519;51.494;-2.626;2023-04-09T03:42:12;6.50;85.11
70154;DHT22;57519;51.494;-2.626;2023-04-09T03:44:37;6.37;85.54
70154;DHT22;57519;51.494;-2.626;2023-04-09T03:47:03;6.33;85.63
70154;DHT22;57519;51.494;-2.626;2023-04-09T03:49:28;6.20;86.14
70154;DHT22;57519;51.494;-2.626;2023-04-09T03:52:01;6.09;86.38
70154;DHT22;57519;51.494;-2.626;2023-04-09T03:54:34;6.07;86.22
70154;DHT22;57519;51.494;-2.626;2023-04-09T03:57:00;5.93;86.60
70154;DHT22;57519;51.494;-2.626;2023-04-09T03:59:27;5.85;87.00
70154;DHT22;57519;51.494;-2.626;2023-04-09T04:01:55;5.76;87.30
70154;DHT22;57519;51.494;-2.626;2023-04-09T04:04:21;5.72;87.23
70154;DHT22;57519;51.494;-2.626;2023-04-09T04:06:46;5.64;87.20
70154;DHT22;57519;51.494;-2.626;2023-04-09T04:09:11;5.52;87.49
70154;DHT22;57519;51.494;-2.626;2023-04-09T04:11:37;5.45;87.55
70154;DHT22;57519;51.494;-2.626;2023-04-09T04:14:03;5.48;88.17
70154;DHT22;57519;51.494;-2.626;2023-04-09T04:16:31;5.41;87.95
70154;DHT22;57519;51.494;-2.626;2023-04-09T04:18:58;5.40;88.03
70154;DHT22;57519;51.494;-2.626;2023-04-09T04:21:27;5.40;87.78
70154;DHT22;57519;51.494;-2.626;2023-04-09T04:23:53;5.37;87.95
70154;DHT22;57519;51.494;-2.626;2023-04-09T04:26:19;5.34;88.33
70154;DHT22;57519;51.494;-2.626;2023-04-09T04:28:44;5.31;88.25
70154;DHT22;57519;51.494;-2.626;2023-04-09T04:31:11;5.24;88.00
70154;DHT22;57519;51.494;-2.626;2023-04-09T04:33:38;5.06;87.89
70154;DHT22;57519;51.494;-2.626;2023-04-09T04:36:09;4.90;88.01
70154;DHT22;57519;51.494;-2.626;2023-04-09T04:38:35;4.78;88.81
70154;DHT22;57519;51.494;-2.626;2023-04-09T04:41:17;4.68;88.74
70154;DHT22;57519;51.494;-2.626;2023-04-09T04:43:47;4.68;89.10
70154;DHT22;57519;51.494;-2.626;2023-04-09T04:46:13;4.62;88.96
70154;DHT22;57519;51.494;-2.626;2023-04-09T04:48:40;4.59;89.23
70154;DHT22;57519;51.494;-2.626;2023-04-09T04:51:05;4.64;89.13
70154;DHT22;57519;51.494;-2.626;2023-04-09T04:53:31;4.57;89.86
70154;DHT22;57519;51.494;-2.626;2023-04-09T05:00:00;4.58;90.37
70154;DHT22;57519;51.494;-2.626;2023-04-09T05:04:51;4.61;90.48
70154;DHT22;57519;51.494;-2.626;2023-04-09T05:07:16;4.54;90.47
70154;DHT22;57519;51.494;-2.626;2023-04-09T05:09:45;4.44;90.50
70154;DHT22;57519;51.494;-2.626;2023-04-09T05:12:12;4.49;91.25
70154;DHT22;57519;51.494;-2.626;2023-04-09T05:14:39;4.48;91.15
70154;DHT22;57519;51.494;-2.626;2023-04-09T05:17:05;4.57;91.40
70154;DHT22;57519;51.494;-2.626;2023-04-09T05:19:30;4.68;91.16
70154;DHT22;57519;51.494;-2.626;2023-04-09T05:21:57;4.69;91.18
70154;DHT22;57519;51.494;-2.626;2023-04-09T05:24:24;4.83;91.35
70154;DHT22;57519;51.494;-2.626;2023-04-09T05:26:49;5.05;90.97
70154;DHT22;57519;51.494;-2.626;2023-04-09T05:29:19;5.16;90.90
70154;DHT22;57519;51.494;-2.626;2023-04-09T05:31:44;5.23;90.75
70154;DHT22;57519;51.494;-2.626;2023-04-09T05:34:11;5.17;90.55
70154;DHT22;57519;51.494;-2.626;2023-04-09T05:36:36;5.37;90.66
70154;DHT22;57519;51.494;-2.626;2023-04-09T05:39:03;5.51;90.37
70154;DHT22;57519;51.494;-2.626;2023-04-09T05:41:29;5.73;89.92
70154;DHT22;57519;51.494;-2.626;2023-04-09T05:43:56;5.79;89.45
70154;DHT22;57519;51.494;-2.626;2023-04-09T05:46:21;5.82;89.19
70154;DHT22;57519;51.494;-2.626;2023-04-09T05:48:48;5.85;89.12
70154;DHT22;57519;51.494;-2.626;2023-04-09T05:51:16;5.86;88.93
70154;DHT22;57519;51.494;-2.626;2023-04-09T05:53:42;5.86;88.76
70154;DHT22;57519;51.494;-2.626;2023-04-09T05:56:14;5.93;88.63
70154;DHT22;57519;51.494;-2.626;2023-04-09T05:58:39;5.93;88.57
70154;DHT22;57519;51.494;-2.626;2023-04-09T06:01:05;5.92;88.46
70154;DHT22;57519;51.494;-2.626;2023-04-09T06:03:30;5.95;88.51
70154;DHT22;57519;51.494;-2.626;2023-04-09T06:05:56;6.00;88.36
70154;DHT22;57519;51.494;-2.626;2023-04-09T06:08:23;6.02;88.16
70154;DHT22;57519;51.494;-2.626;2023-04-09T06:10:50;6.09;88.02
70154;DHT22;57519;51.494;-2.626;2023-04-09T06:13:17;6.07;87.94
70154;DHT22;57519;51.494;-2.626;2023-04-09T06:15:42;6.13;87.66
70154;DHT22;57519;51.494;-2.626;2023-04-09T06:18:10;6.13;87.53
70154;DHT22;57519;51.494;-2.626;2023-04-09T06:20:35;6.19;87.55
70154;DHT22;57519;51.494;-2.626;2023-04-09T06:23:04;6.23;87.50
70154;DHT22;57519;51.494;-2.626;2023-04-09T06:25:30;6.24;87.53
70154;DHT22;57519;51.494;-2.626;2023-04-09T06:27:59;6.31;87.32
70154;DHT22;57519;51.494;-2.626;2023-04-09T06:30:24;6.36;87.15
70154;DHT22;57519;51.494;-2.626;2023-04-09T06:32:58;6.41;87.06
70154;DHT22;57519;51.494;-2.626;2023-04-09T06:35:23;6.44;87.01
70154;DHT22;57519;51.494;-2.626;2023-04-09T06:37:49;6.52;86.76
70154;DHT22;57519;51.494;-2.626;2023-04-09T06:40:17;6.57;86.84
70154;DHT22;57519;51.494;-2.626;2023-04-09T06:42:43;6.55;86.83
70154;DHT22;57519;51.494;-2.626;2023-04-09T06:45:10;6.57;86.85
70154;DHT22;57519;51.494;-2.626;2023-04-09T06:47:37;6.57;86.75
70154;DHT22;57519;51.494;-2.626;2023-04-09T06:50:02;6.64;86.90
70154;DHT22;57519;51.494;-2.626;2023-04-09T06:52:28;6.77;86.97
70154;DHT22;57519;51.494;-2.626;2023-04-09T06:54:54;6.69;87.13
70154;DHT22;57519;51.494;-2.626;2023-04-09T06:59:48;6.92;87.08
70154;DHT22;57519;51.494;-2.626;2023-04-09T07:02:14;7.09;86.91
70154;DHT22;57519;51.494;-2.626;2023-04-09T07:04:44;7.20;86.73
70154;DHT22;57519;51.494;-2.626;2023-04-09T07:07:10;7.23;86.93
70154;DHT22;57519;51.494;-2.626;2023-04-09T07:09:36;7.51;86.74
70154;DHT22;57519;51.494;-2.626;2023-04-09T07:12:02;7.46;86.47
70154;DHT22;57519;51.494;-2.626;2023-04-09T07:14:28;7.55;86.57
70154;DHT22;57519;51.494;-2.626;2023-04-09T07:16:53;7.47;86.67
70154;DHT22;57519;51.494;-2.626;2023-04-09T07:19:20;7.54;86.76
70154;DHT22;57519;51.494;-2.626;2023-04-09T07:21:47;7.64;86.38
70154;DHT22;57519;51.494;-2.626;2023-04-09T07:24:18;7.77;86.44
70154;DHT22;57519;51.494;-2.626;2023-04-09T07:26:43;7.65;86.39
70154;DHT22;57519;51.494;-2.626;2023-04-09T07:29:10;7.71;86.44
70154;DHT22;57519;51.494;-2.626;2023-04-09T07:31:38;7.78;86.42
70154;DHT22;57519;51.494;-2.626;2023-04-09T07:34:04;7.99;86.20
70154;DHT22;57519;51.494;-2.626;2023-04-09T07:36:29;8.05;85.76
70154;DHT22;57519;51.494;-2.626;2023-04-09T07:38:57;8.06;85.50
70154;DHT22;57519;51.494;-2.626;2023-04-09T07:41:22;8.22;85.48
70154;DHT22;57519;51.494;-2.626;2023-04-09T07:43:49;8.33;85.39
70154;DHT22;57519;51.494;-2.626;2023-04-09T07:46:19;8.50;84.89
70154;DHT22;57519;51.494;-2.626;2023-04-09T07:48:45;8.46;84.29
70154;DHT22;57519;51.494;-2.626;2023-04-09T07:51:11;8.67;84.44
70154;DHT22;57519;51.494;-2.626;2023-04-09T07:53:40;8.72;83.93
70154;DHT22;57519;51.494;-2.626;2023-04-09T07:56:05;8.64;83.88
70154;DHT22;57519;51.494;-2.626;2023-04-09T07:58:35;8.71;83.87
70154;DHT22;57519;51.494;-2.626;2023-04-09T08:01:00;8.72;83.77
70154;DHT22;57519;51.494;-2.626;2023-04-09T08:03:26;8.85;83.70
70154;DHT22;57519;51.494;-2.626;2023-04-09T08:05:54;8.74;83.95
70154;DHT22;57519;51.494;-2.626;2023-04-09T08:08:20;8.84;83.83
70154;DHT22;57519;51.494;-2.626;2023-04-09T08:10:47;8.80;83.73
70154;DHT22;57519;51.494;-2.626;2023-04-09T08:13:14;8.87;83.48
70154;DHT22;57519;51.494;-2.626;2023-04-09T08:15:40;9.07;83.20
70154;DHT22;57519;51.494;-2.626;2023-04-09T08:18:06;9.01;83.32
70154;DHT22;57519;51.494;-2.626;2023-04-09T08:20:32;9.19;83.31
70154;DHT22;57519;51.494;-2.626;2023-04-09T08:25:28;9.37;82.80
70154;DHT22;57519;51.494;-2.626;2023-04-09T08:27:55;9.32;82.61
70154;DHT22;57519;51.494;-2.626;2023-04-09T08:30:21;9.39;82.44
70154;DHT22;57519;51.494;-2.626;2023-04-09T08:32:46;9.39;82.56
70154;DHT22;57519;51.494;-2.626;2023-04-09T08:35:12;9.56;82.37
70154;DHT22;57519;51.494;-2.626;2023-04-09T08:37:38;9.70;81.77
70154;DHT22;57519;51.494;-2.626;2023-04-09T08:40:04;9.84;81.05
70154;DHT22;57519;51.494;-2.626;2023-04-09T08:42:33;9.88;81.15
70154;DHT22;57519;51.494;-2.626;2023-04-09T08:45:03;10.08;81.02
70154;DHT22;57519;51.494;-2.626;2023-04-09T08:47:32;10.31;80.76
70154;DHT22;57519;51.494;-2.626;2023-04-09T08:49:59;10.26;80.11
70154;DHT22;57519;51.494;-2.626;2023-04-09T08:52:31;10.32;79.96
70154;DHT22;57519;51.494;-2.626;2023-04-09T08:54:57;10.45;80.34
70154;DHT22;57519;51.494;-2.626;2023-04-09T08:57:26;10.45;79.50
70154;DHT22;57519;51.494;-2.626;2023-04-09T08:59:56;10.48;79.77
70154;DHT22;57519;51.494;-2.626;2023-04-09T09:02:23;10.55;79.18
70154;DHT22;57519;51.494;-2.626;2023-04-09T09:04:54;10.66;79.14
70154;DHT22;57519;51.494;-2.626;2023-04-09T09:07:28;10.64;79.08
70154;DHT22;57519;51.494;-2.626;2023-04-09T09:09:59;10.69;78.73
70154;DHT22;57519;51.494;-2.626;2023-04-09T09:12:39;10.91;78.61
70154;DHT22;57519;51.494;-2.626;2023-04-09T09:15:27;11.06;77.79
70154;DHT22;57519;51.494;-2.626;2023-04-09T09:17:56;11.15;77.60
70154;DHT22;57519;51.494;-2.626;2023-04-09T09:20:22;11.24;77.78
70154;DHT22;57519;51.494;-2.626;2023-04-09T09:22:53;11.35;77.38
70154;DHT22;57519;51.494;-2.626;2023-04-09T09:25:19;11.48;76.98
70154;DHT22;57519;51.494;-2.626;2023-04-09T09:27:49;11.51;76.75
70154;DHT22;57519;51.494;-2.626;2023-04-09T09:30:25;11.73;77.21
70154;DHT22;57519;51.494;-2.626;2023-04-09T09:33:08;11.80;76.63
70154;DHT22;57519;51.494;-2.626;2023-04-09T09:35:50;11.77;76.24
70154;DHT22;57519;51.494;-2.626;2023-04-09T09:38:19;12.03;75.75
70154;DHT22;57519;51.494;-2.626;2023-04-09T09:40:45;11.96;75.59
70154;DHT22;57519;51.494;-2.626;2023-04-09T09:43:12;12.00;75.85
70154;DHT22;57519;51.494;-2.626;2023-04-09T09:45:39;12.28;75.54
70154;DHT22;57519;51.494;-2.626;2023-04-09T09:48:09;12.21;74.91
70154;DHT22;57519;51.494;-2.626;2023-04-09T09:50:38;12.27;75.36
70154;DHT22;57519;51.494;-2.626;2023-04-09T09:53:09;12.17;74.54
70154;DHT22;57519;51.494;-2.626;2023-04-09T09:55:40;12.32;75.15
70154;DHT22;57519;51.494;-2.626;2023-04-09T09:58:22;12.44;74.61
70154;DHT22;57519;51.494;-2.626;2023-04-09T10:00:50;12.71;74.58
70154;DHT22;57519;51.494;-2.626;2023-04-09T10:03:26;12.85;74.16
70154;DHT22;57519;51.494;-2.626;2023-04-09T10:05:51;12.85;73.08
70154;DHT22;57519;51.494;-2.626;2023-04-09T10:08:18;12.96;73.61
70154;DHT22;57519;51.494;-2.626;2023-04-09T10:10:46;12.97;73.52
70154;DHT22;57519;51.494;-2.626;2023-04-09T10:13:26;13.16;73.82
70154;DHT22;57519;51.494;-2.626;2023-04-09T10:15:57;13.11;72.44
70154;DHT22;57519;51.494;-2.626;2023-04-09T10:18:23;13.37;72.54
70154;DHT22;57519;51.494;-2.626;2023-04-09T10:21:02;13.36;72.78
70154;DHT22;57519;51.494;-2.626;2023-04-09T10:23:41;13.36;71.66
70154;DHT22;57519;51.494;-2.626;2023-04-09T10:26:07;13.53;72.14
70154;DHT22;57519;51.494;-2.626;2023-04-09T10:28:33;13.55;71.93
70154;DHT22;57519;51.494;-2.626;2023-04-09T10:30:58;13.69;71.42
70154;DHT22;57519;51.494;-2.626;2023-04-09T10:33:25;13.89;70.22
70154;DHT22;57519;51.494;-2.626;2023-04-09T10:36:03;14.05;70.21
70154;DHT22;57519;51.494;-2.626;2023-04-09T10:38:40;14.19;70.12
70154;DHT22;57519;51.494;-2.626;2023-04-09T10:44:30;14.38;69.88
70154;DHT22;57519;51.494;-2.626;2023-04-09T10:46:57;14.44;68.89
70154;DHT22;57519;51.494;-2.626;2023-04-09T10:49:24;14.56;69.07
70154;DHT22;57519;51.494;-2.626;2023-04-09T10:59:37;14.78;69.41
70154;DHT22;57519;51.494;-2.626;2023-04-09T11:02:06;14.89;69.62
70154;DHT22;57519;51.494;-2.626;2023-04-09T11:07:32;15.33;68.85
70154;DHT22;57519;51.494;-2.626;2023-04-09T11:09:59;15.26;67.29
70154;DHT22;57519;51.494;-2.626;2023-04-09T11:12:24;15.42;66.77
70154;DHT22;57519;51.494;-2.626;2023-04-09T11:14:50;15.71;66.32
70154;DHT22;57519;51.494;-2.626;2023-04-09T11:17:17;15.74;64.30
70154;DHT22;57519;51.494;-2.626;2023-04-09T11:19:44;15.85;64.03
70154;DHT22;57519;51.494;-2.626;2023-04-09T11:22:12;15.91;64.31
70154;DHT22;57519;51.494;-2.626;2023-04-09T11:24:45;15.81;63.81
70154;DHT22;57519;51.494;-2.626;2023-04-09T11:27:15;15.77;64.16
70154;DHT22;57519;51.494;-2.626;2023-04-09T11:29:43;15.70;63.71
70154;DHT22;57519;51.494;-2.626;2023-04-09T11:32:11;15.71;63.58
70154;DHT22;57519;51.494;-2.626;2023-04-09T11:34:38;15.75;63.88
70154;DHT22;57519;51.494;-2.626;2023-04-09T11:37:13;15.73;62.96
70154;DHT22;57519;51.494;-2.626;2023-04-09T11:39:43;15.90;62.36
70154;DHT22;57519;51.494;-2.626;2023-04-09T11:45:48;16.11;62.54
70154;DHT22;57519;51.494;-2.626;2023-04-09T11:48:14;16.21;60.87
70154;DHT22;57519;51.494;-2.626;2023-04-09T11:50:42;16.38;60.44
70154;DHT22;57519;51.494;-2.626;2023-04-09T11:53:35;16.38;61.10
70154;DHT22;57519;51.494;-2.626;2023-04-09T11:56:01;16.64;60.53
70154;DHT22;57519;51.494;-2.626;2023-04-09T11:58:27;16.70;60.83
70154;DHT22;57519;51.494;-2.626;2023-04-09T12:00:54;16.69;59.77
70154;DHT22;57519;51.494;-2.626;2023-04-09T12:03:27;16.41;59.96
70154;DHT22;57519;51.494;-2.626;2023-04-09T12:06:15;16.50;59.42
70154;DHT22;57519;51.494;-2.626;2023-04-09T12:08:46;16.49;60.05
70154;DHT22;57519;51.494;-2.626;2023-04-09T12:11:14;16.38;58.48
70154;DHT22;57519;51.494;-2.626;2023-04-09T12:13:40;16.45;58.78
70154;DHT22;57519;51.494;-2.626;2023-04-09T12:16:09;16.46;59.29
70154;DHT22;57519;51.494;-2.626;2023-04-09T12:18:36;16.71;58.31
70154;DHT22;57519;51.494;-2.626;2023-04-09T12:21:05;16.59;58.43
70154;DHT22;57519;51.494;-2.626;2023-04-09T12:23:34;16.52;59.09
70154;DHT22;57519;51.494;-2.626;2023-04-09T12:26:00;16.63;60.27
70154;DHT22;57519;51.494;-2.626;2023-04-09T12:28:34;16.67;59.05
70154;DHT22;57519;51.494;-2.626;2023-04-09T12:30:59;16.77;59.76
70154;DHT22;57519;51.494;-2.626;2023-04-09T12:33:27;16.73;59.06
70154;DHT22;57519;51.494;-2.626;2023-04-09T12:35:59;16.73;60.16
70154;DHT22;57519;51.494;-2.626;2023-04-09T12:38:28;16.79;61.06
70154;DHT22;57519;51.494;-2.626;2023-04-09T12:40:53;16.92;60.83
70154;DHT22;57519;51.494;-2.626;2023-04-09T12:43:22;16.85;59.87
70154;DHT22;57519;51.494;-2.626;2023-04-09T12:45:48;17.01;60.37
70154;DHT22;57519;51.494;-2.626;2023-04-09T12:48:18;17.31;60.19
70154;DHT22;57519;51.494;-2.626;2023-04-09T12:50:51;17.39;58.17
70154;DHT22;57519;51.494;-2.626;2023-04-09T12:53:17;17.55;59.11
70154;DHT22;57519;51.494;-2.626;2023-04-09T12:55:46;17.31;54.11
70154;DHT22;57519;51.494;-2.626;2023-04-09T12:58:15;17.27;53.47
70154;DHT22;57519;51.494;-2.626;2023-04-09T13:00:41;17.29;54.02
70154;DHT22;57519;51.494;-2.626;2023-04-09T13:03:07;17.56;54.86
70154;DHT22;57519;51.494;-2.626;2023-04-09T13:05:33;17.56;54.35
70154;DHT22;57519;51.494;-2.626;2023-04-09T13:08:00;17.52;53.40
70154;DHT22;57519;51.494;-2.626;2023-04-09T13:10:29;17.65;53.34
70154;DHT22;57519;51.494;-2.626;2023-04-09T13:12:55;17.46;52.97
70154;DHT22;57519;51.494;-2.626;2023-04-09T13:15:24;17.28;54.37
70154;DHT22;57519;51.494;-2.626;2023-04-09T13:21:15;17.17;54.58
70154;DHT22;57519;51.494;-2.626;2023-04-09T13:23:43;17.19;54.27
70154;DHT22;57519;51.494;-2.626;2023-04-09T13:26:09;17.29;53.63
70154;DHT22;57519;51.494;-2.626;2023-04-09T13:28:43;17.56;53.02
70154;DHT22;57519;51.494;-2.626;2023-04-09T13:31:10;17.79;53.30
70154;DHT22;57519;51.494;-2.626;2023-04-09T13:33:38;17.61;52.27
70154;DHT22;57519;51.494;-2.626;2023-04-09T13:39:27;17.53;52.11
70154;DHT22;57519;51.494;-2.626;2023-04-09T13:41:52;17.59;51.95
70154;DHT22;57519;51.494;-2.626;2023-04-09T13:44:19;17.50;51.50
70154;DHT22;57519;51.494;-2.626;2023-04-09T13:46:45;17.27;51.86
70154;DHT22;57519;51.494;-2.626;2023-04-09T13:52:34;17.15;52.23
70154;DHT22;57519;51.494;-2.626;2023-04-09T13:58:24;17.10;52.96
70154;DHT22;57519;51.494;-2.626;2023-04-09T14:00:50;17.04;53.08
70154;DHT22;57519;51.494;-2.626;2023-04-09T14:03:22;16.79;53.09
70154;DHT22;57519;51.494;-2.626;2023-04-09T14:09:13;16.90;53.23
70154;DHT22;57519;51.494;-2.626;2023-04-09T14:11:41;17.01;52.63
70154;DHT22;57519;51.494;-2.626;2023-04-09T14:17:29;16.73;52.49
70154;DHT22;57519;51.494;-2.626;2023-04-09T14:19:55;16.74;53.17
70154;DHT22;57519;51.494;-2.626;2023-04-09T14:22:25;16.71;52.64
70154;DHT22;57519;51.494;-2.626;2023-04-09T14:24:50;16.64;52.40
70154;DHT22;57519;51.494;-2.626;2023-04-09T14:27:16;16.62;52.14
70154;DHT22;57519;51.494;-2.626;2023-04-09T14:33:03;16.14;52.92
70154;DHT22;57519;51.494;-2.626;2023-04-09T14:39:18;15.97;52.92
70154;DHT22;57519;51.494;-2.626;2023-04-09T14:45:10;15.83;54.08
70154;DHT22;57519;51.494;-2.626;2023-04-09T14:50:59;15.73;54.11
70154;DHT22;57519;51.494;-2.626;2023-04-09T14:57:13;15.83;54.60
70154;DHT22;57519;51.494;-2.626;2023-04-09T15:03:01;15.73;55.12
70154;DHT22;57519;51.494;-2.626;2023-04-09T15:08:55;16.01;55.77
70154;DHT22;57519;51.494;-2.626;2023-04-09T15:11:26;15.94;55.80
70154;DHT22;57519;51.494;-2.626;2023-04-09T15:13:54;16.00;55.66
70154;DHT22;57519;51.494;-2.626;2023-04-09T15:19:49;15.88;56.82
70154;DHT22;57519;51.494;-2.626;2023-04-09T15:25:40;15.70;55.58
70154;DHT22;57519;51.494;-2.626;2023-04-09T15:31:27;15.51;56.25
70154;DHT22;57519;51.494;-2.626;2023-04-09T15:33:53;15.56;55.77
70154;DHT22;57519;51.494;-2.626;2023-04-09T15:36:19;15.61;57.16
70154;DHT22;57519;51.494;-2.626;2023-04-09T15:38:47;15.63;56.80
70154;DHT22;57519;51.494;-2.626;2023-04-09T15:41:13;15.53;56.45
70154;DHT22;57519;51.494;-2.626;2023-04-09T15:43:47;15.54;56.33
70154;DHT22;57519;51.494;-2.626;2023-04-09T15:46:13;15.56;56.98
70154;DHT22;57519;51.494;-2.626;2023-04-09T15:48:40;15.70;56.08
70154;DHT22;57519;51.494;-2.626;2023-04-09T15:51:14;15.67;55.74
70154;DHT22;57519;51.494;-2.626;2023-04-09T15:53:44;15.78;55.62
70154;DHT22;57519;51.494;-2.626;2023-04-09T15:56:11;15.74;55.54
70154;DHT22;57519;51.494;-2.626;2023-04-09T15:58:40;15.71;55.62
70154;DHT22;57519;51.494;-2.626;2023-04-09T16:01:07;15.66;55.79
70154;DHT22;57519;51.494;-2.626;2023-04-09T16:03:35;15.67;56.06
70154;DHT22;57519;51.494;-2.626;2023-04-09T16:09:27;15.50;57.22
70154;DHT22;57519;51.494;-2.626;2023-04-09T16:11:53;15.68;57.59
70154;DHT22;57519;51.494;-2.626;2023-04-09T16:14:26;15.66;57.89
70154;DHT22;57519;51.494;-2.626;2023-04-09T16:16:52;15.57;56.86
70154;DHT22;57519;51.494;-2.626;2023-04-09T16:19:19;15.61;56.65
70154;DHT22;57519;51.494;-2.626;2023-04-09T16:21:51;15.63;56.01
70154;DHT22;57519;51.494;-2.626;2023-04-09T16:27:50;15.39;56.94
70154;DHT22;57519;51.494;-2.626;2023-04-09T16:30:16;15.43;56.75
70154;DHT22;57519;51.494;-2.626;2023-04-09T16:36:03;15.13;57.16
70154;DHT22;57519;51.494;-2.626;2023-04-09T16:38:33;15.06;56.94
70154;DHT22;57519;51.494;-2.626;2023-04-09T16:41:00;15.03;57.27
70154;DHT22;57519;51.494;-2.626;2023-04-09T16:43:25;14.82;58.15
70154;DHT22;57519;51.494;-2.626;2023-04-09T16:49:13;14.82;58.49
70154;DHT22;57519;51.494;-2.626;2023-04-09T16:51:41;14.72;58.34
70154;DHT22;57519;51.494;-2.626;2023-04-09T16:57:48;14.82;59.03
70154;DHT22;57519;51.494;-2.626;2023-04-09T17:00:21;14.72;58.99
70154;DHT22;57519;51.494;-2.626;2023-04-09T17:10:52;14.57;59.39
70154;DHT22;57519;51.494;-2.626;2023-04-09T17:20:10;14.27;58.81
70154;DHT22;57519;51.494;-2.626;2023-04-09T17:26:00;14.17;59.22
70154;DHT22;57519;51.494;-2.626;2023-04-09T17:31:51;14.06;60.50
70154;DHT22;57519;51.494;-2.626;2023-04-09T17:37:39;14.05;60.18
70154;DHT22;57519;51.494;-2.626;2023-04-09T17:43:26;13.93;61.72
70154;DHT22;57519;51.494;-2.626;2023-04-09T17:45:51;13.96;62.35
70154;DHT22;57519;51.494;-2.626;2023-04-09T17:48:16;13.87;62.86
70154;DHT22;57519;51.494;-2.626;2023-04-09T17:50:42;13.86;63.59